Time;durP1;ratioP1;P1;durP2;ratioP2;P2;SDS_P1;SDS_P2;PMS_P1;PMS_P2;Temp;Humidity;BMP_temperature;BMP_pressure;BME280_temperature;BME280_humidity;BME280_pressure;Samples;Min_cycle;Max_cycle;Signal;HPM_P1;HPM_P2
2022/05/12 00:00:44;;;;;;;;;;;12.20;99.90;;;;;;5055177;28;19931;-70
2022/05/12 00:03:12;;;;;;;;;;;12.10;99.90;;;;;;5055032;28;19924;-68
2022/05/12 00:05:37;;;;;;;;;;;12.00;99.90;;;;;;5054895;28;19979;-69
2022/05/12 00:08:03;;;;;;;;;;;11.90;99.90;;;;;;5054910;28;19983;-72
2022/05/12 00:10:29;;;;;;;;;;;11.80;99.90;;;;;;5054883;28;20012;-68
2022/05/12 00:12:56;;;;;;;;;;;11.80;99.90;;;;;;5054754;28;19931;-68
2022/05/12 00:15:23;;;;;;;;;;;11.70;99.90;;;;;;5054872;28;19924;-72
2022/05/12 00:17:49;;;;;;;;;;;11.50;99.90;;;;;;5037300;28;19928;-69
2022/05/12 00:20:16;;;;;;;;;;;11.70;99.90;;;;;;5054745;28;19925;-69
2022/05/12 00:22:42;;;;;;;;;;;11.60;99.90;;;;;;5053607;28;19924;-68
2022/05/12 00:25:15;;;;;;;;;;;11.60;99.90;;;;;;5054835;28;19931;-67
2022/05/12 00:27:41;;;;;;;;;;;11.60;99.90;;;;;;5054603;28;19950;-69
2022/05/12 00:30:09;;;;;;;;;;;11.60;99.90;;;;;;5054516;28;19924;-69
2022/05/12 00:32:39;;;;;;;;;;;11.60;99.90;;;;;;5054375;28;19931;-68
2022/05/12 00:35:06;;;;;;;;;;;11.50;99.90;;;;;;5054301;28;19928;-68
2022/05/12 00:37:31;;;;;;;;;;;11.50;99.90;;;;;;5054330;28;20291;-68
2022/05/12 00:39:57;;;;;;;;;;;11.50;99.90;;;;;;5054504;28;20023;-69
2022/05/12 00:42:22;;;;;;;;;;;11.40;99.90;;;;;;5054405;28;20276;-71
2022/05/12 00:44:48;;;;;;;;;;;11.40;99.90;;;;;;5054427;28;20339;-70
2022/05/12 00:47:13;;;;;;;;;;;11.70;99.90;;;;;;5053360;28;20292;-71
2022/05/12 00:49:40;;;;;;;;;;;11.30;99.90;;;;;;5054033;28;19978;-68
2022/05/12 00:52:08;;;;;;;;;;;11.90;99.90;;;;;;5053981;28;19925;-70
2022/05/12 00:54:49;;;;;;;;;;;11.30;99.90;;;;;;5053238;28;19931;-68
2022/05/12 00:57:16;;;;;;;;;;;11.20;99.90;;;;;;5052913;28;20391;-72
2022/05/12 00:59:43;;;;;;;;;;;10.10;99.90;;;;;;5053972;28;20418;-68
2022/05/12 01:02:10;;;;;;;;;;;11.40;99.90;;;;;;5054037;28;20362;-69
2022/05/12 01:04:38;;;;;;;;;;;11.10;99.90;;;;;;5052843;28;19924;-68
2022/05/12 01:07:04;;;;;;;;;;;11.50;99.90;;;;;;5054115;28;19925;-69
2022/05/12 01:09:30;;;;;;;;;;;11.00;99.90;;;;;;5053057;28;19929;-70
2022/05/12 01:11:56;;;;;;;;;;;10.90;99.90;;;;;;5053025;28;20010;-69
2022/05/12 01:14:22;;;;;;;;;;;10.90;99.90;;;;;;5053787;28;19925;-68
2022/05/12 01:16:50;;;;;;;;;;;10.90;99.90;;;;;;5052833;28;19924;-69
2022/05/12 01:19:18;;;;;;;;;;;10.80;99.90;;;;;;5053648;28;20374;-68
2022/05/12 01:21:45;;;;;;;;;;;10.80;99.90;;;;;;5053724;28;19925;-68
2022/05/12 01:24:11;;;;;;;;;;;10.80;99.90;;;;;;5053772;28;19924;-70
2022/05/12 01:26:37;;;;;;;;;;;10.70;99.90;;;;;;5053705;28;20417;-68
2022/05/12 01:29:03;;;;;;;;;;;10.70;99.90;;;;;;5053511;28;19929;-69
2022/05/12 01:31:29;;;;;;;;;;;10.70;99.90;;;;;;5053593;28;19933;-69
2022/05/12 01:33:54;;;;;;;;;;;10.70;99.90;;;;;;5053393;28;19932;-68
2022/05/12 01:36:20;;;;;;;;;;;10.80;99.90;;;;;;5053623;28;19925;-68
2022/05/12 01:38:47;;;;;;;;;;;10.70;99.90;;;;;;5053681;28;19925;-71
2022/05/12 01:41:12;;;;;;;;;;;10.60;99.90;;;;;;5053663;28;20376;-68
2022/05/12 01:43:38;;;;;;;;;;;10.60;99.90;;;;;;5053551;28;19972;-69
2022/05/12 01:46:04;;;;;;;;;;;10.60;99.90;;;;;;5053465;28;19929;-69
2022/05/12 01:48:30;;;;;;;;;;;10.50;99.90;;;;;;5053561;28;19925;-68
2022/05/12 01:50:55;;;;;;;;;;;10.50;99.90;;;;;;5053242;28;20421;-68
2022/05/12 01:53:21;;;;;;;;;;;10.60;99.90;;;;;;5053369;28;19925;-69
2022/05/12 01:55:49;;;;;;;;;;;10.70;99.90;;;;;;5053505;28;20022;-69
2022/05/12 01:58:16;;;;;;;;;;;10.70;99.90;;;;;;5052452;28;19925;-68
2022/05/12 02:00:42;;;;;;;;;;;10.40;99.90;;;;;;5053363;28;19932;-72
2022/05/12 02:03:07;;;;;;;;;;;10.40;99.90;;;;;;5053309;28;19924;-69
2022/05/12 02:05:34;;;;;;;;;;;10.40;99.90;;;;;;5053148;28;19995;-67
2022/05/12 02:08:00;;;;;;;;;;;10.70;99.90;;;;;;5053364;28;19981;-68
2022/05/12 02:10:29;;;;;;;;;;;10.30;99.90;;;;;;5052289;28;19975;-68
2022/05/12 02:12:55;;;;;;;;;;;10.20;99.90;;;;;;5055211;28;19925;-68
2022/05/12 02:15:21;;;;;;;;;;;10.20;99.90;;;;;;5057112;28;20371;-69
2022/05/12 02:17:48;;;;;;;;;;;10.10;99.90;;;;;;5057071;28;19976;-68
2022/05/12 02:20:13;;;;;;;;;;;8.90;99.90;;;;;;5056861;28;20011;-68
2022/05/12 02:22:41;;;;;;;;;;;10.00;99.90;;;;;;5055011;28;20393;-69
2022/05/12 02:25:07;;;;;;;;;;;10.10;99.90;;;;;;5057045;28;19925;-68
2022/05/12 02:27:33;;;;;;;;;;;10.00;99.90;;;;;;5056802;28;19928;-68
2022/05/12 02:29:59;;;;;;;;;;;10.10;99.90;;;;;;5056911;28;19986;-69
2022/05/12 02:32:27;;;;;;;;;;;10.30;99.90;;;;;;5055694;28;19968;-69
2022/05/12 02:34:53;;;;;;;;;;;10.10;99.90;;;;;;5056579;28;19929;-71
2022/05/12 02:37:18;;;;;;;;;;;10.00;99.90;;;;;;5056881;28;20027;-69
2022/05/12 02:39:44;;;;;;;;;;;10.00;99.90;;;;;;5056809;28;19972;-71
2022/05/12 02:42:10;;;;;;;;;;;10.00;99.90;;;;;;5056483;28;19976;-71
2022/05/12 02:44:36;;;;;;;;;;;10.00;99.90;;;;;;5055762;28;19970;-71
2022/05/12 02:47:03;;;;;;;;;;;9.90;99.90;;;;;;5056473;28;19932;-68
2022/05/12 02:49:29;;;;;;;;;;;9.90;99.90;;;;;;5056448;28;19929;-69
2022/05/12 02:51:54;;;;;;;;;;;8.60;99.90;;;;;;5056236;28;19925;-68
2022/05/12 02:54:20;;;;;;;;;;;10.10;99.90;;;;;;5055115;28;20062;-68
2022/05/12 02:56:45;;;;;;;;;;;9.90;99.90;;;;;;5056508;28;19924;-68
2022/05/12 02:59:11;;;;;;;;;;;9.80;99.90;;;;;;5055420;28;19925;-69
2022/05/12 03:01:37;;;;;;;;;;;9.80;99.90;;;;;;5056296;28;20038;-68
2022/05/12 03:04:03;;;;;;;;;;;10.60;99.90;;;;;;5055249;28;20388;-68
2022/05/12 03:06:28;;;;;;;;;;;9.80;99.90;;;;;;5055998;28;19929;-71
2022/05/12 03:08:54;;;;;;;;;;;9.70;99.90;;;;;;5056035;28;19925;-71
2022/05/12 03:11:20;;;;;;;;;;;10.00;99.90;;;;;;5056191;28;19925;-68
2022/05/12 03:13:46;;;;;;;;;;;9.50;99.90;;;;;;5056102;28;19951;-68
2022/05/12 03:16:12;;;;;;;;;;;9.60;99.90;;;;;;5054900;28;20261;-68
2022/05/12 03:18:39;;;;;;;;;;;9.60;99.90;;;;;;5055965;28;20028;-68
2022/05/12 03:21:04;;;;;;;;;;;9.70;99.90;;;;;;5054720;28;19924;-67
2022/05/12 03:23:30;;;;;;;;;;;9.50;99.90;;;;;;5054945;28;19951;-69
2022/05/12 03:25:56;;;;;;;;;;;9.50;99.90;;;;;;5055629;28;19931;-68
2022/05/12 03:28:21;;;;;;;;;;;9.70;99.90;;;;;;5054582;28;19975;-68
2022/05/12 03:30:47;;;;;;;;;;;9.50;99.90;;;;;;5055727;28;20011;-68
2022/05/12 03:33:13;;;;;;;;;;;9.50;99.90;;;;;;5055598;28;19925;-68
2022/05/12 03:35:39;;;;;;;;;;;9.50;99.90;;;;;;5055411;28;20030;-69
2022/05/12 03:38:05;;;;;;;;;;;9.50;99.90;;;;;;5055777;28;19972;-69
2022/05/12 03:40:31;;;;;;;;;;;9.50;99.90;;;;;;5055705;28;19925;-68
2022/05/12 03:42:59;;;;;;;;;;;9.50;99.90;;;;;;5055684;28;19925;-69
2022/05/12 03:45:25;;;;;;;;;;;9.50;99.90;;;;;;5054542;28;19957;-68
2022/05/12 03:47:51;;;;;;;;;;;9.60;99.90;;;;;;5054519;28;19947;-68
2022/05/12 03:50:18;;;;;;;;;;;9.20;99.90;;;;;;5053986;28;20380;-68
2022/05/12 03:52:44;;;;;;;;;;;9.70;99.90;;;;;;5054005;28;19932;-68
2022/05/12 03:55:13;;;;;;;;;;;10.40;99.90;;;;;;5055364;28;19929;-68
2022/05/12 03:57:40;;;;;;;;;;;9.60;99.90;;;;;;5055252;28;19935;-68
2022/05/12 04:00:07;;;;;;;;;;;9.50;99.90;;;;;;5055241;28;20308;-68
2022/05/12 04:02:33;;;;;;;;;;;9.60;99.90;;;;;;5054150;28;20019;-68
2022/05/12 04:04:59;;;;;;;;;;;10.50;99.90;;;;;;5054956;28;20016;-67
2022/05/12 04:07:25;;;;;;;;;;;9.80;99.90;;;;;;5053971;28;19925;-71
2022/05/12 04:09:51;;;;;;;;;;;9.80;99.90;;;;;;5055096;28;19936;-70
2022/05/12 04:12:17;;;;;;;;;;;9.60;99.90;;;;;;5054955;28;20054;-68
2022/05/12 04:14:43;;;;;;;;;;;9.60;99.90;;;;;;5054970;28;19979;-68
2022/05/12 04:17:13;;;;;;;;;;;9.60;99.90;;;;;;5054847;28;20441;-69
2022/05/12 04:19:39;;;;;;;;;;;9.60;99.90;;;;;;5054761;28;19929;-68
2022/05/12 04:22:04;;;;;;;;;;;10.20;99.90;;;;;;5053588;28;19979;-68
2022/05/12 04:24:30;;;;;;;;;;;9.60;99.90;;;;;;5054904;28;19964;-67
2022/05/12 04:26:56;;;;;;;;;;;10.50;99.90;;;;;;5054752;28;19968;-67
2022/05/12 04:29:21;;;;;;;;;;;9.60;99.90;;;;;;5054322;28;20008;-68
2022/05/12 04:31:47;;;;;;;;;;;10.90;99.90;;;;;;5053307;28;19925;-68
2022/05/12 04:36:56;;;;;;;;;;;9.60;99.90;;;;;;5054160;28;20411;-67
2022/05/12 04:39:22;;;;;;;;;;;9.70;99.90;;;;;;5054544;28;19925;-71
2022/05/12 04:41:47;;;;;;;;;;;9.70;99.90;;;;;;5053526;28;20434;-68
2022/05/12 04:44:13;;;;;;;;;;;9.70;99.90;;;;;;5036761;28;19925;-68
2022/05/12 04:46:40;;;;;;;;;;;10.30;99.90;;;;;;5054324;28;19929;-67
2022/05/12 04:49:06;;;;;;;;;;;10.70;99.90;;;;;;5054283;28;19980;-69
2022/05/12 04:51:32;;;;;;;;;;;9.00;99.90;;;;;;5054017;28;19932;-70
2022/05/12 04:54:01;;;;;;;;;;;10.10;99.90;;;;;;5052759;28;19924;-68
2022/05/12 04:56:26;;;;;;;;;;;10.00;99.90;;;;;;5053321;28;19925;-68
2022/05/12 04:58:52;;;;;;;;;;;10.40;99.90;;;;;;5053222;28;19925;-69
2022/05/12 05:01:18;;;;;;;;;;;10.00;99.90;;;;;;5054050;28;20384;-70
2022/05/12 05:03:44;;;;;;;;;;;10.10;99.90;;;;;;5053020;28;20020;-69
2022/05/12 05:06:10;;;;;;;;;;;10.10;99.90;;;;;;5053838;28;20300;-68
2022/05/12 05:08:36;;;;;;;;;;;10.10;99.90;;;;;;5054124;28;19932;-68
2022/05/12 05:11:03;;;;;;;;;;;10.10;99.90;;;;;;5052730;28;19932;-68
2022/05/12 05:13:29;;;;;;;;;;;10.20;99.90;;;;;;5053827;28;19929;-68
2022/05/12 05:15:55;;;;;;;;;;;10.20;99.90;;;;;;5052894;28;20015;-69
2022/05/12 05:18:21;;;;;;;;;;;10.30;99.90;;;;;;5052868;28;19932;-68
2022/05/12 05:20:47;;;;;;;;;;;10.40;99.90;;;;;;5053617;28;20418;-67
2022/05/12 05:23:13;;;;;;;;;;;10.60;99.90;;;;;;5052801;28;19925;-71
2022/05/12 05:25:39;;;;;;;;;;;11.60;99.90;;;;;;5052937;28;19929;-68
2022/05/12 05:28:05;;;;;;;;;;;11.00;99.90;;;;;;5053776;28;19932;-70
2022/05/12 05:30:30;;;;;;;;;;;10.50;99.90;;;;;;5053630;28;19932;-71
2022/05/12 05:32:56;;;;;;;;;;;10.60;99.90;;;;;;5052499;28;19925;-71
2022/05/12 05:35:22;;;;;;;;;;;10.70;99.90;;;;;;5052443;28;20390;-72
2022/05/12 05:37:48;;;;;;;;;;;10.70;99.90;;;;;;5052816;28;19931;-70
2022/05/12 05:40:15;;;;;;;;;;;10.80;99.90;;;;;;5052752;28;20011;-71
2022/05/12 05:42:44;;;;;;;;;;;10.40;99.90;;;;;;5053618;28;19975;-71
2022/05/12 05:45:15;;;;;;;;;;;10.90;99.90;;;;;;5053580;28;20379;-71
2022/05/12 05:47:45;;;;;;;;;;;11.00;99.90;;;;;;5054087;28;19924;-71
2022/05/12 05:50:12;;;;;;;;;;;11.00;99.90;;;;;;5039901;28;19925;-71
2022/05/12 05:55:22;;;;;;;;;;;11.10;99.90;;;;;;5057657;28;19976;-68
2022/05/12 05:57:47;;;;;;;;;;;11.40;99.90;;;;;;5056596;28;19925;-67
2022/05/12 06:00:15;;;;;;;;;;;11.30;99.90;;;;;;5057484;28;19925;-69
2022/05/12 06:02:41;;;;;;;;;;;11.40;99.90;;;;;;5056316;28;20386;-68
2022/05/12 06:05:07;;;;;;;;;;;11.40;99.90;;;;;;5057252;28;19924;-69
2022/05/12 06:07:35;;;;;;;;;;;11.50;99.90;;;;;;5057448;28;20315;-69
2022/05/12 06:10:01;;;;;;;;;;;11.60;99.90;;;;;;5057276;28;19931;-69
2022/05/12 06:12:27;;;;;;;;;;;11.60;99.90;;;;;;5057068;28;20342;-67
2022/05/12 06:14:53;;;;;;;;;;;11.90;99.90;;;;;;5057200;28;19932;-68
2022/05/12 06:17:19;;;;;;;;;;;11.00;99.90;;;;;;5057131;28;19928;-69
2022/05/12 06:19:44;;;;;;;;;;;11.90;99.90;;;;;;5056957;28;19928;-68
2022/05/12 06:22:10;;;;;;;;;;;12.00;99.90;;;;;;5089774;28;19924;-70
2022/05/12 06:24:36;;;;;;;;;;;12.00;99.90;;;;;;5056890;28;20334;-68
2022/05/12 06:27:02;;;;;;;;;;;12.10;99.90;;;;;;5056062;28;20414;-68
2022/05/12 06:29:28;;;;;;;;;;;12.20;99.90;;;;;;5056626;28;19928;-67
2022/05/12 06:31:53;;;;;;;;;;;12.20;99.90;;;;;;5055867;28;19924;-69
2022/05/12 06:34:19;;;;;;;;;;;12.30;99.90;;;;;;5056471;28;20067;-68
2022/05/12 06:36:45;;;;;;;;;;;12.30;99.90;;;;;;5056810;28;19932;-68
2022/05/12 06:39:11;;;;;;;;;;;12.40;99.90;;;;;;5056857;28;19925;-68
2022/05/12 06:41:36;;;;;;;;;;;12.40;99.90;;;;;;5056711;28;19931;-69
2022/05/12 06:44:04;;;;;;;;;;;12.40;99.90;;;;;;5056542;28;19932;-68
2022/05/12 06:46:29;;;;;;;;;;;12.60;99.90;;;;;;5055596;28;19979;-69
2022/05/12 06:48:55;;;;;;;;;;;12.60;99.90;;;;;;5056412;28;19929;-68
2022/05/12 06:51:20;;;;;;;;;;;12.60;99.90;;;;;;5055768;28;20172;-69
2022/05/12 06:53:46;;;;;;;;;;;13.40;99.90;;;;;;5056113;28;19924;-69
2022/05/12 06:56:12;;;;;;;;;;;12.70;99.90;;;;;;5054825;28;19931;-68
2022/05/12 06:58:38;;;;;;;;;;;12.80;99.90;;;;;;5055091;28;20284;-68
2022/05/12 07:01:04;;;;;;;;;;;12.80;99.90;;;;;;5056121;28;20024;-70
2022/05/12 07:03:30;;;;;;;;;;;12.90;99.90;;;;;;5056097;28;19979;-69
2022/05/12 07:05:56;;;;;;;;;;;13.00;99.90;;;;;;5055990;28;19991;-70
2022/05/12 07:08:22;;;;;;;;;;;13.10;99.90;;;;;;5056281;28;20283;-69
2022/05/12 07:10:47;;;;;;;;;;;13.10;99.90;;;;;;5056184;28;20269;-68
2022/05/12 07:13:19;;;;;;;;;;;13.10;99.90;;;;;;5054957;28;19932;-69
2022/05/12 07:15:49;;;;;;;;;;;13.20;99.90;;;;;;5056034;28;19924;-69
2022/05/12 07:18:15;;;;;;;;;;;13.30;99.90;;;;;;5055018;28;19924;-67
2022/05/12 07:28:53;;;;;;;;;;;13.50;99.90;;;;;;5055841;28;19951;-68
2022/05/12 07:31:18;;;;;;;;;;;13.40;99.90;;;;;;5055808;28;19928;-69
2022/05/12 07:33:45;;;;;;;;;;;13.70;99.90;;;;;;5054558;28;19932;-69
2022/05/12 07:36:15;;;;;;;;;;;13.60;99.90;;;;;;5055590;28;19928;-68
2022/05/12 07:38:41;;;;;;;;;;;13.60;99.90;;;;;;5055631;28;19980;-70
2022/05/12 07:41:09;;;;;;;;;;;13.70;99.90;;;;;;5055473;28;19932;-74
2022/05/12 07:43:35;;;;;;;;;;;13.80;99.90;;;;;;5055469;28;20001;-74
2022/05/12 07:46:01;;;;;;;;;;;13.80;99.90;;;;;;5054619;28;20447;-72
2022/05/12 07:48:26;;;;;;;;;;;13.90;99.90;;;;;;5055631;28;20015;-74
2022/05/12 07:50:52;;;;;;;;;;;14.00;99.90;;;;;;5055276;28;20308;-71
2022/05/12 07:53:18;;;;;;;;;;;14.00;99.90;;;;;;5055297;28;19925;-69
2022/05/12 07:55:44;;;;;;;;;;;14.00;99.90;;;;;;5055291;28;19970;-70
2022/05/12 07:58:10;;;;;;;;;;;14.10;99.90;;;;;;5054195;28;19925;-69
2022/05/12 08:00:36;;;;;;;;;;;14.20;99.90;;;;;;5054040;28;19924;-69
2022/05/12 08:03:01;;;;;;;;;;;14.30;99.90;;;;;;5048017;28;20277;-69
2022/05/12 08:05:40;;;;;;;;;;;14.40;99.90;;;;;;5046133;28;20035;-71
2022/05/12 08:08:06;;;;;;;;;;;14.50;99.90;;;;;;5042256;28;19948;-69
2022/05/12 08:10:32;;;;;;;;;;;14.50;99.90;;;;;;5041555;28;19979;-72
2022/05/12 08:12:58;;;;;;;;;;;14.60;99.90;;;;;;5044672;28;19972;-71
2022/05/12 08:15:25;;;;;;;;;;;14.60;99.90;;;;;;5037655;28;20004;-71
2022/05/12 08:17:51;;;;;;;;;;;14.80;99.90;;;;;;5051439;28;19951;-70
2022/05/12 08:20:17;;;;;;;;;;;14.80;99.90;;;;;;5054746;28;19976;-70
2022/05/12 08:22:42;;;;;;;;;;;14.80;99.90;;;;;;5054471;28;19925;-71
2022/05/12 08:25:08;;;;;;;;;;;14.90;99.90;;;;;;5053645;28;19925;-70
2022/05/12 08:27:34;;;;;;;;;;;15.00;99.90;;;;;;5054541;28;20252;-68
2022/05/12 08:30:00;;;;;;;;;;;15.10;99.90;;;;;;5054446;28;19977;-71
2022/05/12 08:32:25;;;;;;;;;;;15.10;99.90;;;;;;5054605;28;19925;-69
2022/05/12 08:34:51;;;;;;;;;;;15.20;99.90;;;;;;5054532;28;19925;-71
2022/05/12 08:37:18;;;;;;;;;;;15.20;99.90;;;;;;5053510;28;19932;-69
2022/05/12 08:39:45;;;;;;;;;;;15.30;99.90;;;;;;5054488;28;20300;-69
2022/05/12 08:42:19;;;;;;;;;;;15.30;99.90;;;;;;5054348;28;19931;-69
2022/05/12 08:44:45;;;;;;;;;;;15.30;99.90;;;;;;5054451;28;19925;-68
2022/05/12 08:47:13;;;;;;;;;;;15.40;99.90;;;;;;5053621;28;20295;-69
2022/05/12 08:49:50;;;;;;;;;;;15.60;99.90;;;;;;5054108;28;19931;-69
2022/05/12 08:52:24;;;;;;;;;;;15.70;99.90;;;;;;5051269;28;19948;-68
2022/05/12 08:54:55;;;;;;;;;;;15.80;99.90;;;;;;5050936;28;19924;-70
2022/05/12 08:57:28;;;;;;;;;;;15.80;99.90;;;;;;5038636;28;19933;-69
2022/05/12 08:59:54;;;;;;;;;;;15.80;99.90;;;;;;5033943;28;19932;-68
2022/05/12 09:02:27;;;;;;;;;;;15.80;99.90;;;;;;5033958;28;19925;-70
2022/05/12 09:05:00;;;;;;;;;;;15.90;99.90;;;;;;5032682;28;19983;-72
2022/05/12 09:07:29;;;;;;;;;;;16.00;99.90;;;;;;5033699;28;19928;-68
2022/05/12 09:09:55;;;;;;;;;;;16.10;99.90;;;;;;5033702;28;20023;-73
2022/05/12 09:12:32;;;;;;;;;;;16.10;99.90;;;;;;5033879;28;20039;-69
2022/05/12 09:15:03;;;;;;;;;;;16.00;99.90;;;;;;5037742;28;19924;-69
2022/05/12 09:17:37;;;;;;;;;;;15.90;99.90;;;;;;5042643;28;20311;-69
2022/05/12 09:20:02;;;;;;;;;;;15.80;99.90;;;;;;5053461;28;19929;-69
2022/05/12 09:22:29;;;;;;;;;;;15.90;99.90;;;;;;5053208;28;19924;-69
2022/05/12 09:24:55;;;;;;;;;;;16.10;99.90;;;;;;5053814;28;19925;-69
2022/05/12 09:27:32;;;;;;;;;;;16.30;99.90;;;;;;5053435;28;20016;-69
2022/05/12 09:29:58;;;;;;;;;;;16.20;99.90;;;;;;5053520;28;19925;-69
2022/05/12 09:32:26;;;;;;;;;;;16.50;99.90;;;;;;5053461;28;19925;-72
2022/05/12 09:35:03;;;;;;;;;;;16.60;99.90;;;;;;5053308;28;19925;-69
2022/05/12 09:37:30;;;;;;;;;;;16.50;99.90;;;;;;5052224;28;19952;-68
2022/05/12 09:39:57;;;;;;;;;;;16.60;99.90;;;;;;5052684;28;20019;-68
2022/05/12 09:42:28;;;;;;;;;;;16.70;99.90;;;;;;5051772;28;19935;-69
2022/05/12 09:44:56;;;;;;;;;;;16.70;99.90;;;;;;5052258;28;19971;-70
2022/05/12 09:47:22;;;;;;;;;;;16.60;99.70;;;;;;5052967;28;19979;-71
2022/05/12 09:49:48;;;;;;;;;;;16.60;99.90;;;;;;5053230;28;19971;-69
2022/05/12 09:52:40;;;;;;;;;;;16.70;99.90;;;;;;5052913;28;19946;-69
2022/05/12 09:55:09;;;;;;;;;;;16.70;99.90;;;;;;5051730;28;19931;-69
2022/05/12 09:57:35;;;;;;;;;;;16.60;99.90;;;;;;5053156;28;19925;-69
2022/05/12 10:00:03;;;;;;;;;;;16.60;99.90;;;;;;5053185;28;19925;-69
2022/05/12 10:08:24;;;;;;;;;;;16.50;99.90;;;;;;5050727;28;19929;-70
2022/05/12 10:10:53;;;;;;;;;;;16.40;99.90;;;;;;5034524;28;19936;-69
2022/05/12 10:13:22;;;;;;;;;;;16.40;99.90;;;;;;5050814;28;19924;-68
2022/05/12 10:15:49;;;;;;;;;;;16.40;99.90;;;;;;5034661;28;19925;-68
2022/05/12 10:18:32;;;;;;;;;;;16.50;99.90;;;;;;5051047;28;19931;-72
2022/05/12 10:21:07;;;;;;;;;;;16.60;99.90;;;;;;5050895;28;20392;-70
2022/05/12 10:23:38;;;;;;;;;;;16.60;99.90;;;;;;5050590;28;20296;-68
2022/05/12 10:26:06;;;;;;;;;;;16.50;99.90;;;;;;5050931;28;20027;-72
2022/05/12 10:28:50;;;;;;;;;;;16.40;99.90;;;;;;5050599;28;19975;-71
2022/05/12 10:31:15;;;;;;;;;;;16.40;99.90;;;;;;5050910;28;19925;-71
2022/05/12 10:33:51;;;;;;;;;;;16.50;99.90;;;;;;5035572;28;19925;-71
2022/05/12 10:36:22;;;;;;;;;;;16.60;99.90;;;;;;5054473;28;20019;-69
2022/05/12 10:38:56;;;;;;;;;;;16.80;99.90;;;;;;5054457;28;19925;-69
2022/05/12 10:41:26;;;;;;;;;;;17.00;99.90;;;;;;5055180;28;20335;-71
2022/05/12 10:43:52;;;;;;;;;;;17.00;99.50;;;;;;5056616;28;19932;-70
2022/05/12 10:46:20;;;;;;;;;;;17.10;97.60;;;;;;5053375;28;20380;-70
2022/05/12 10:49:07;;;;;;;;;;;17.10;99.90;;;;;;5055159;28;20023;-71
2022/05/12 10:51:51;;;;;;;;;;;17.10;99.90;;;;;;5071234;28;19925;-68
2022/05/12 10:54:20;;;;;;;;;;;17.20;99.90;;;;;;5036295;28;20407;-68
2022/05/12 10:56:46;;;;;;;;;;;17.30;99.90;;;;;;5028010;28;19932;-69
2022/05/12 10:59:24;;;;;;;;;;;17.30;98.40;;;;;;5053822;28;19929;-69
2022/05/12 11:01:53;;;;;;;;;;;17.30;99.90;;;;;;5046731;28;20357;-69
2022/05/12 11:04:21;;;;;;;;;;;17.30;96.60;;;;;;5055430;28;19925;-70
2022/05/12 11:06:51;;;;;;;;;;;17.20;94.30;;;;;;5055862;28;19980;-69
2022/05/12 11:09:22;;;;;;;;;;;17.10;99.90;;;;;;5054725;28;19925;-69
2022/05/12 11:11:50;;;;;;;;;;;17.00;99.90;;;;;;5055304;28;19925;-69
2022/05/12 11:14:18;;;;;;;;;;;16.90;99.90;;;;;;5055857;28;19932;-70
2022/05/12 11:16:49;;;;;;;;;;;17.00;99.50;;;;;;5055822;28;19925;-72
2022/05/12 11:19:23;;;;;;;;;;;17.00;94.50;;;;;;5055788;28;19929;-69
2022/05/12 11:22:07;;;;;;;;;;;17.10;92.30;;;;;;5055355;28;19929;-69
2022/05/12 11:24:54;;;;;;;;;;;17.20;90.50;;;;;;5055906;28;19994;-70
2022/05/12 11:27:23;;;;;;;;;;;17.40;90.70;;;;;;5055542;28;19979;-70
2022/05/12 11:29:54;;;;;;;;;;;17.50;84.20;;;;;;5055647;28;19979;-70
2022/05/12 11:32:29;;;;;;;;;;;17.50;86.30;;;;;;5054524;28;19968;-68
2022/05/12 11:34:56;;;;;;;;;;;17.50;81.80;;;;;;5053697;28;19929;-69
2022/05/12 11:37:25;;;;;;;;;;;17.50;85.30;;;;;;5055241;28;19924;-69
2022/05/12 11:39:54;;;;;;;;;;;17.60;94.60;;;;;;5055593;28;19928;-70
2022/05/12 11:42:20;;;;;;;;;;;17.70;83.00;;;;;;5055345;28;20422;-69
2022/05/12 11:44:52;;;;;;;;;;;17.60;74.20;;;;;;5036547;28;19929;-72
2022/05/12 11:47:30;;;;;;;;;;;17.60;73.40;;;;;;5055113;28;19925;-70
2022/05/12 11:50:01;;;;;;;;;;;17.60;73.80;;;;;;5055282;28;19925;-70
2022/05/12 11:52:30;;;;;;;;;;;17.60;80.50;;;;;;5054903;28;20388;-69
2022/05/12 11:54:57;;;;;;;;;;;17.50;78.50;;;;;;5054941;28;20420;-69
2022/05/12 11:57:25;;;;;;;;;;;17.30;80.00;;;;;;5053008;28;19932;-68
2022/05/12 11:59:55;;;;;;;;;;;17.30;89.70;;;;;;5054952;28;19951;-69
2022/05/12 12:02:29;;;;;;;;;;;17.30;81.60;;;;;;5053951;28;20015;-68
2022/05/12 12:05:01;;;;;;;;;;;17.40;83.90;;;;;;5054962;28;20422;-69
2022/05/12 12:07:30;;;;;;;;;;;17.40;84.00;;;;;;5053756;28;19978;-70
2022/05/12 12:09:58;;;;;;;;;;;17.40;86.60;;;;;;5054737;28;20019;-70
2022/05/12 12:12:45;;;;;;;;;;;17.40;93.50;;;;;;5054667;28;19924;-68
2022/05/12 12:15:20;;;;;;;;;;;17.50;81.00;;;;;;5054883;28;19929;-67
2022/05/12 12:17:45;;;;;;;;;;;17.60;82.50;;;;;;5054892;28;19931;-68
2022/05/12 12:20:29;;;;;;;;;;;17.60;88.00;;;;;;5054558;28;20015;-69
2022/05/12 12:23:15;;;;;;;;;;;17.80;79.20;;;;;;5054229;28;20019;-69
2022/05/12 12:25:41;;;;;;;;;;;17.90;76.80;;;;;;5047172;28;20327;-69
2022/05/12 12:28:10;;;;;;;;;;;18.00;82.20;;;;;;5053362;28;19979;-69
2022/05/12 12:30:48;;;;;;;;;;;18.10;68.80;;;;;;5053599;28;19929;-69
2022/05/12 12:33:35;;;;;;;;;;;18.10;75.70;;;;;;5054379;28;19931;-69
2022/05/12 12:36:06;;;;;;;;;;;18.10;73.50;;;;;;5053034;28;20302;-69
2022/05/12 12:38:43;;;;;;;;;;;18.10;71.50;;;;;;5053172;28;19924;-68
2022/05/12 12:41:09;;;;;;;;;;;18.00;66.40;;;;;;5050720;28;19936;-69
2022/05/12 12:43:37;;;;;;;;;;;17.90;68.70;;;;;;5035200;28;19925;-67
2022/05/12 12:46:21;;;;;;;;;;;18.00;73.00;;;;;;5034379;28;20438;-69
2022/05/12 12:48:53;;;;;;;;;;;17.90;67.60;;;;;;5033584;28;19925;-69
2022/05/12 12:51:33;;;;;;;;;;;17.80;68.90;;;;;;5034026;28;19925;-69
2022/05/12 12:56:43;;;;;;;;;;;17.50;72.50;;;;;;5034141;28;19925;-68
2022/05/12 12:59:20;;;;;;;;;;;17.50;72.40;;;;;;5066326;28;19928;-70
2022/05/12 13:01:49;;;;;;;;;;;17.50;68.80;;;;;;5034063;28;20427;-68
2022/05/12 13:04:18;;;;;;;;;;;17.70;73.50;;;;;;5034027;28;20368;-68
2022/05/12 13:07:06;;;;;;;;;;;17.80;75.00;;;;;;5033996;28;19925;-68
2022/05/12 13:09:35;;;;;;;;;;;18.00;73.80;;;;;;5034127;28;19932;-69
2022/05/12 13:12:18;;;;;;;;;;;18.00;69.30;;;;;;5034079;28;20296;-68
2022/05/12 13:14:44;;;;;;;;;;;18.00;68.70;;;;;;5033946;28;20332;-68
2022/05/12 13:17:25;;;;;;;;;;;17.90;68.40;;;;;;5033826;28;19929;-71
2022/05/12 13:19:51;;;;;;;;;;;17.70;65.50;;;;;;5033860;28;19925;-70
2022/05/12 13:22:22;;;;;;;;;;;17.60;66.30;;;;;;5032896;28;19968;-69
2022/05/12 13:24:47;;;;;;;;;;;17.50;65.60;;;;;;5066172;28;19979;-68
2022/05/12 13:27:15;;;;;;;;;;;17.50;65.90;;;;;;5032382;28;19964;-69
2022/05/12 13:29:41;;;;;;;;;;;17.40;65.00;;;;;;5032759;28;19925;-67
2022/05/12 13:32:11;;;;;;;;;;;17.30;68.70;;;;;;5033576;28;19971;-69
2022/05/12 13:34:37;;;;;;;;;;;17.40;67.50;;;;;;5033522;28;19925;-68
2022/05/12 13:37:24;;;;;;;;;;;17.50;66.20;;;;;;5033457;28;20415;-67
2022/05/12 13:39:50;;;;;;;;;;;17.50;62.90;;;;;;5033635;28;19925;-68
2022/05/12 13:42:18;;;;;;;;;;;17.50;62.70;;;;;;5033642;28;19955;-68
2022/05/12 13:44:47;;;;;;;;;;;17.60;62.20;;;;;;5033548;28;19925;-68
2022/05/12 13:47:19;;;;;;;;;;;17.50;64.40;;;;;;5033732;28;19929;-69
2022/05/12 13:49:48;;;;;;;;;;;17.90;60.80;;;;;;5033512;28;19925;-68
2022/05/12 13:52:13;;;;;;;;;;;18.00;61.60;;;;;;5033511;28;19932;-68
2022/05/12 13:54:40;;;;;;;;;;;17.90;60.30;;;;;;5033284;28;19929;-70
2022/05/12 13:57:15;;;;;;;;;;;17.80;59.80;;;;;;5033420;28;19925;-68
2022/05/12 13:59:50;;;;;;;;;;;17.70;60.50;;;;;;5033329;28;20430;-70
2022/05/12 14:02:24;;;;;;;;;;;17.60;61.00;;;;;;5033524;28;19929;-69
2022/05/12 14:04:50;;;;;;;;;;;17.50;61.30;;;;;;5033276;28;19929;-69
2022/05/12 14:07:36;;;;;;;;;;;17.50;61.00;;;;;;5033255;28;19971;-68
2022/05/12 14:10:26;;;;;;;;;;;17.60;60.70;;;;;;5069512;28;19932;-68
2022/05/12 14:21:07;;;;;;;;;;;18.00;62.60;;;;;;5037112;28;19931;-67
2022/05/12 14:23:33;;;;;;;;;;;18.10;61.10;;;;;;5037161;28;19925;-68
2022/05/12 14:25:59;;;;;;;;;;;18.00;60.70;;;;;;5037069;28;19976;-69
2022/05/12 14:28:25;;;;;;;;;;;17.80;60.40;;;;;;5037112;28;19988;-69
2022/05/12 14:30:50;;;;;;;;;;;17.70;61.30;;;;;;5043091;28;20392;-70
2022/05/12 14:33:18;;;;;;;;;;;17.50;60.70;;;;;;5056541;28;20030;-69
2022/05/12 14:35:44;;;;;;;;;;;17.50;60.60;;;;;;5056086;28;19932;-68
2022/05/12 14:38:10;;;;;;;;;;;17.40;61.00;;;;;;5056725;28;19935;-68
2022/05/12 14:40:35;;;;;;;;;;;17.40;63.60;;;;;;5056844;28;19925;-68
2022/05/12 14:43:01;;;;;;;;;;;17.40;63.40;;;;;;5056758;28;19932;-68
2022/05/12 14:45:26;;;;;;;;;;;17.50;65.20;;;;;;5056627;28;20389;-67
2022/05/12 14:47:56;;;;;;;;;;;17.60;63.60;;;;;;5056523;28;20008;-69
2022/05/12 14:50:22;;;;;;;;;;;17.50;64.60;;;;;;5056671;28;19979;-68
2022/05/12 14:52:47;;;;;;;;;;;17.50;64.70;;;;;;5056236;28;19947;-70
2022/05/12 14:55:13;;;;;;;;;;;17.50;64.80;;;;;;5056590;28;19925;-68